sensor_id;sensor_type;location;lat;lon;timestamp;temperature;humidity
1988;DHT22;12775;46.994;15.498;2022-11-20T00:01:16;5.60;99.90
1988;DHT22;12775;46.994;15.498;2022-11-20T00:03:42;5.60;99.90
1988;DHT22;12775;46.994;15.498;2022-11-20T00:06:10;5.60;99.90
1988;DHT22;12775;46.994;15.498;2022-11-20T00:08:35;5.60;99.90
1988;DHT22;12775;46.994;15.498;2022-11-20T00:11:07;5.60;99.90
1988;DHT22;12775;46.994;15.498;2022-11-20T00:13:32;5.60;99.90
1988;DHT22;12775;46.994;15.498;2022-11-20T00:15:59;5.60;99.90
1988;DHT22;12775;46.994;15.498;2022-11-20T00:18:26;5.50;99.90
1988;DHT22;12775;46.994;15.498;2022-11-20T00:20:52;5.60;99.90
1988;DHT22;12775;46.994;15.498;2022-11-20T00:23:19;5.60;99.90
1988;DHT22;12775;46.994;15.498;2022-11-20T00:25:45;5.60;99.90
1988;DHT22;12775;46.994;15.498;2022-11-20T00:28:12;5.50;99.90
1988;DHT22;12775;46.994;15.498;2022-11-20T00:30:39;5.50;99.90
1988;DHT22;12775;46.994;15.498;2022-11-20T00:33:05;5.50;99.90
1988;DHT22;12775;46.994;15.498;2022-11-20T00:35:32;5.50;99.90
1988;DHT22;12775;46.994;15.498;2022-11-20T00:37:59;5.50;99.90
1988;DHT22;12775;46.994;15.498;2022-11-20T00:40:26;5.50;99.90
1988;DHT22;12775;46.994;15.498;2022-11-20T00:42:53;5.50;99.90
1988;DHT22;12775;46.994;15.498;2022-11-20T00:45:20;5.50;99.90
1988;DHT22;12775;46.994;15.498;2022-11-20T00:47:46;5.50;99.90
1988;DHT22;12775;46.994;15.498;2022-11-20T00:50:13;5.50;99.90
1988;DHT22;12775;46.994;15.498;2022-11-20T00:52:40;5.50;99.90
1988;DHT22;12775;46.994;15.498;2022-11-20T00:55:07;5.50;99.90
1988;DHT22;12775;46.994;15.498;2022-11-20T00:57:33;5.50;99.90
1988;DHT22;12775;46.994;15.498;2022-11-20T01:00:00;5.60;99.90
1988;DHT22;12775;46.994;15.498;2022-11-20T01:02:27;5.60;99.90
1988;DHT22;12775;46.994;15.498;2022-11-20T01:04:54;5.70;99.90
1988;DHT22;12775;46.994;15.498;2022-11-20T01:07:21;5.70;99.90
1988;DHT22;12775;46.994;15.498;2022-11-20T01:09:47;5.70;99.90
1988;DHT22;12775;46.994;15.498;2022-11-20T01:12:14;5.70;99.90
1988;DHT22;12775;46.994;15.498;2022-11-20T01:14:40;5.70;99.90
1988;DHT22;12775;46.994;15.498;2022-11-20T01:17:07;5.70;99.90
1988;DHT22;12775;46.994;15.498;2022-11-20T01:19:34;5.70;99.90
1988;DHT22;12775;46.994;15.498;2022-11-20T01:22:00;5.80;99.90
1988;DHT22;12775;46.994;15.498;2022-11-20T01:24:27;5.70;99.90
1988;DHT22;12775;46.994;15.498;2022-11-20T01:26:53;5.80;99.90
1988;DHT22;12775;46.994;15.498;2022-11-20T01:29:21;5.60;99.90
1988;DHT22;12775;46.994;15.498;2022-11-20T01:31:47;5.50;99.90
1988;DHT22;12775;46.994;15.498;2022-11-20T01:34:15;5.40;99.90
1988;DHT22;12775;46.994;15.498;2022-11-20T01:36:40;5.40;99.90
1988;DHT22;12775;46.994;15.498;2022-11-20T01:39:11;5.30;99.90
1988;DHT22;12775;46.994;15.498;2022-11-20T01:41:35;5.10;99.90
1988;DHT22;12775;46.994;15.498;2022-11-20T01:44:09;5.10;99.90
1988;DHT22;12775;46.994;15.498;2022-11-20T01:46:35;5.10;99.90
1988;DHT22;12775;46.994;15.498;2022-11-20T01:49:08;5.10;99.90
1988;DHT22;12775;46.994;15.498;2022-11-20T01:51:33;5.20;99.90
1988;DHT22;12775;46.994;15.498;2022-11-20T01:54:00;5.10;99.90
1988;DHT22;12775;46.994;15.498;2022-11-20T01:56:26;5.20;99.90
1988;DHT22;12775;46.994;15.498;2022-11-20T01:58:54;5.30;99.90
1988;DHT22;12775;46.994;15.498;2022-11-20T02:01:20;5.30;99.90
1988;DHT22;12775;46.994;15.498;2022-11-20T02:03:46;5.30;99.90
1988;DHT22;12775;46.994;15.498;2022-11-20T02:06:23;5.40;99.90
1988;DHT22;12775;46.994;15.498;2022-11-20T02:08:49;5.50;99.90
1988;DHT22;12775;46.994;15.498;2022-11-20T02:11:15;5.50;99.90
1988;DHT22;12775;46.994;15.498;2022-11-20T02:13:42;5.50;99.90
1988;DHT22;12775;46.994;15.498;2022-11-20T02:16:11;5.50;99.90
1988;DHT22;12775;46.994;15.498;2022-11-20T02:18:38;5.50;99.90
1988;DHT22;12775;46.994;15.498;2022-11-20T02:21:27;5.60;99.90
1988;DHT22;12775;46.994;15.498;2022-11-20T02:24:09;5.60;99.90
1988;DHT22;12775;46.994;15.498;2022-11-20T02:26:41;5.60;99.90
1988;DHT22;12775;46.994;15.498;2022-11-20T02:29:04;5.70;99.90
1988;DHT22;12775;46.994;15.498;2022-11-20T02:31:41;5.70;99.90
1988;DHT22;12775;46.994;15.498;2022-11-20T02:34:08;5.70;99.90
1988;DHT22;12775;46.994;15.498;2022-11-20T02:36:35;5.70;99.90
1988;DHT22;12775;46.994;15.498;2022-11-20T02:39:02;5.70;99.90
1988;DHT22;12775;46.994;15.498;2022-11-20T02:41:32;5.70;99.90
1988;DHT22;12775;46.994;15.498;2022-11-20T02:43:58;5.70;99.90
1988;DHT22;12775;46.994;15.498;2022-11-20T02:46:25;5.80;99.90
1988;DHT22;12775;46.994;15.498;2022-11-20T02:48:51;5.80;99.90
1988;DHT22;12775;46.994;15.498;2022-11-20T02:51:18;5.80;99.90
1988;DHT22;12775;46.994;15.498;2022-11-20T02:53:46;5.80;99.90
1988;DHT22;12775;46.994;15.498;2022-11-20T02:56:13;5.80;99.90
1988;DHT22;12775;46.994;15.498;2022-11-20T02:58:39;5.80;99.90
1988;DHT22;12775;46.994;15.498;2022-11-20T03:01:06;5.80;99.90
1988;DHT22;12775;46.994;15.498;2022-11-20T03:03:33;5.90;99.90
1988;DHT22;12775;46.994;15.498;2022-11-20T03:05:59;5.90;99.90
1988;DHT22;12775;46.994;15.498;2022-11-20T03:08:26;5.90;99.90
1988;DHT22;12775;46.994;15.498;2022-11-20T03:10:53;5.90;99.90
1988;DHT22;12775;46.994;15.498;2022-11-20T03:13:20;5.90;99.90
1988;DHT22;12775;46.994;15.498;2022-11-20T03:15:47;5.90;99.90
1988;DHT22;12775;46.994;15.498;2022-11-20T03:18:13;5.90;99.90
1988;DHT22;12775;46.994;15.498;2022-11-20T03:20:40;5.90;99.90
1988;DHT22;12775;46.994;15.498;2022-11-20T03:23:06;5.80;99.90
1988;DHT22;12775;46.994;15.498;2022-11-20T03:25:33;5.90;99.90
1988;DHT22;12775;46.994;15.498;2022-11-20T03:28:00;5.90;99.90
1988;DHT22;12775;46.994;15.498;2022-11-20T03:30:26;5.90;99.90
1988;DHT22;12775;46.994;15.498;2022-11-20T03:32:53;5.90;99.90
1988;DHT22;12775;46.994;15.498;2022-11-20T03:35:19;5.90;99.90
1988;DHT22;12775;46.994;15.498;2022-11-20T03:37:46;5.80;99.90
1988;DHT22;12775;46.994;15.498;2022-11-20T03:40:12;5.80;99.90
1988;DHT22;12775;46.994;15.498;2022-11-20T03:42:39;5.80;99.90
1988;DHT22;12775;46.994;15.498;2022-11-20T03:45:11;5.80;99.90
1988;DHT22;12775;46.994;15.498;2022-11-20T03:47:37;5.80;99.90
1988;DHT22;12775;46.994;15.498;2022-11-20T03:50:04;5.90;99.90
1988;DHT22;12775;46.994;15.498;2022-11-20T03:52:32;5.90;99.90
1988;DHT22;12775;46.994;15.498;2022-11-20T03:54:58;5.90;99.90
1988;DHT22;12775;46.994;15.498;2022-11-20T03:57:25;5.90;99.90
1988;DHT22;12775;46.994;15.498;2022-11-20T03:59:51;5.90;99.90
1988;DHT22;12775;46.994;15.498;2022-11-20T04:02:18;5.90;99.90
1988;DHT22;12775;46.994;15.498;2022-11-20T04:04:45;5.90;99.90
1988;DHT22;12775;46.994;15.498;2022-11-20T04:07:11;5.90;99.90
1988;DHT22;12775;46.994;15.498;2022-11-20T04:09:38;5.70;99.90
1988;DHT22;12775;46.994;15.498;2022-11-20T04:12:04;5.80;99.90
1988;DHT22;12775;46.994;15.498;2022-11-20T04:14:31;5.70;99.90
1988;DHT22;12775;46.994;15.498;2022-11-20T04:16:58;5.80;99.90
1988;DHT22;12775;46.994;15.498;2022-11-20T04:19:24;5.70;99.90
1988;DHT22;12775;46.994;15.498;2022-11-20T04:21:51;5.70;99.90
1988;DHT22;12775;46.994;15.498;2022-11-20T04:24:17;5.70;99.90
1988;DHT22;12775;46.994;15.498;2022-11-20T04:26:44;5.70;99.90
1988;DHT22;12775;46.994;15.498;2022-11-20T04:29:11;5.70;99.90
1988;DHT22;12775;46.994;15.498;2022-11-20T04:31:38;5.70;99.90
1988;DHT22;12775;46.994;15.498;2022-11-20T04:34:06;5.70;99.90
1988;DHT22;12775;46.994;15.498;2022-11-20T04:36:33;5.70;99.90
1988;DHT22;12775;46.994;15.498;2022-11-20T04:39:02;5.70;99.90
1988;DHT22;12775;46.994;15.498;2022-11-20T04:41:30;5.50;99.90
1988;DHT22;12775;46.994;15.498;2022-11-20T04:43:57;5.30;99.90
1988;DHT22;12775;46.994;15.498;2022-11-20T04:46:22;5.20;99.90
1988;DHT22;12775;46.994;15.498;2022-11-20T04:48:49;5.30;99.90
1988;DHT22;12775;46.994;15.498;2022-11-20T04:51:16;5.30;99.90
1988;DHT22;12775;46.994;15.498;2022-11-20T04:53:44;5.30;99.90
1988;DHT22;12775;46.994;15.498;2022-11-20T04:56:11;5.30;99.90
1988;DHT22;12775;46.994;15.498;2022-11-20T04:58:37;5.40;99.90
1988;DHT22;12775;46.994;15.498;2022-11-20T05:01:06;5.40;99.90
1988;DHT22;12775;46.994;15.498;2022-11-20T05:03:33;5.30;99.90
1988;DHT22;12775;46.994;15.498;2022-11-20T05:06:01;5.20;99.90
1988;DHT22;12775;46.994;15.498;2022-11-20T05:08:28;5.30;99.90
1988;DHT22;12775;46.994;15.498;2022-11-20T05:10:58;5.30;99.90
1988;DHT22;12775;46.994;15.498;2022-11-20T05:13:21;5.30;99.90
1988;DHT22;12775;46.994;15.498;2022-11-20T05:15:47;5.30;99.90
1988;DHT22;12775;46.994;15.498;2022-11-20T05:18:14;5.30;99.90
1988;DHT22;12775;46.994;15.498;2022-11-20T05:20:40;5.20;99.90
1988;DHT22;12775;46.994;15.498;2022-11-20T05:23:07;5.30;99.90
1988;DHT22;12775;46.994;15.498;2022-11-20T05:25:34;5.30;99.90
1988;DHT22;12775;46.994;15.498;2022-11-20T05:28:00;5.20;99.90
1988;DHT22;12775;46.994;15.498;2022-11-20T05:30:28;5.30;99.90
1988;DHT22;12775;46.994;15.498;2022-11-20T05:32:54;5.30;99.90
1988;DHT22;12775;46.994;15.498;2022-11-20T05:35:21;5.30;99.90
1988;DHT22;12775;46.994;15.498;2022-11-20T05:37:48;5.10;99.90
1988;DHT22;12775;46.994;15.498;2022-11-20T05:40:15;5.10;99.90
1988;DHT22;12775;46.994;15.498;2022-11-20T05:42:41;5.10;99.90
1988;DHT22;12775;46.994;15.498;2022-11-20T05:45:08;5.20;99.90
1988;DHT22;12775;46.994;15.498;2022-11-20T05:47:35;5.20;99.90
1988;DHT22;12775;46.994;15.498;2022-11-20T05:50:02;5.20;99.90
1988;DHT22;12775;46.994;15.498;2022-11-20T05:52:28;5.20;99.90
1988;DHT22;12775;46.994;15.498;2022-11-20T05:54:55;5.20;99.90
1988;DHT22;12775;46.994;15.498;2022-11-20T05:57:21;5.20;99.90
1988;DHT22;12775;46.994;15.498;2022-11-20T05:59:48;5.30;99.90
1988;DHT22;12775;46.994;15.498;2022-11-20T06:02:15;5.30;99.90
1988;DHT22;12775;46.994;15.498;2022-11-20T06:04:41;5.30;99.90
1988;DHT22;12775;46.994;15.498;2022-11-20T06:07:09;5.30;99.90
1988;DHT22;12775;46.994;15.498;2022-11-20T06:09:36;5.30;99.90
1988;DHT22;12775;46.994;15.498;2022-11-20T06:12:02;5.30;99.90
1988;DHT22;12775;46.994;15.498;2022-11-20T06:14:29;5.30;99.90
1988;DHT22;12775;46.994;15.498;2022-11-20T06:16:56;5.30;99.90
1988;DHT22;12775;46.994;15.498;2022-11-20T06:19:22;5.40;99.90
1988;DHT22;12775;46.994;15.498;2022-11-20T06:21:49;5.40;99.90
1988;DHT22;12775;46.994;15.498;2022-11-20T06:24:16;5.40;99.90
1988;DHT22;12775;46.994;15.498;2022-11-20T06:26:43;5.40;99.90
1988;DHT22;12775;46.994;15.498;2022-11-20T06:29:09;5.40;99.90
1988;DHT22;12775;46.994;15.498;2022-11-20T06:31:36;5.40;99.90
1988;DHT22;12775;46.994;15.498;2022-11-20T06:34:03;5.40;99.90
1988;DHT22;12775;46.994;15.498;2022-11-20T06:36:29;5.40;99.90
1988;DHT22;12775;46.994;15.498;2022-11-20T06:38:57;5.30;99.90
1988;DHT22;12775;46.994;15.498;2022-11-20T06:41:23;5.30;99.90
1988;DHT22;12775;46.994;15.498;2022-11-20T06:43:50;5.30;99.90
1988;DHT22;12775;46.994;15.498;2022-11-20T06:46:19;5.30;99.90
1988;DHT22;12775;46.994;15.498;2022-11-20T06:48:45;5.20;99.90
1988;DHT22;12775;46.994;15.498;2022-11-20T06:51:12;5.20;99.90
1988;DHT22;12775;46.994;15.498;2022-11-20T06:53:39;5.20;99.90
1988;DHT22;12775;46.994;15.498;2022-11-20T06:56:07;5.20;99.90
1988;DHT22;12775;46.994;15.498;2022-11-20T06:58:35;5.20;99.90
1988;DHT22;12775;46.994;15.498;2022-11-20T07:01:03;5.10;99.90
1988;DHT22;12775;46.994;15.498;2022-11-20T07:03:29;5.10;99.90
1988;DHT22;12775;46.994;15.498;2022-11-20T07:05:57;5.10;99.90
1988;DHT22;12775;46.994;15.498;2022-11-20T07:08:24;5.10;99.90
1988;DHT22;12775;46.994;15.498;2022-11-20T07:10:51;5.10;99.90
1988;DHT22;12775;46.994;15.498;2022-11-20T07:13:18;5.10;99.90
1988;DHT22;12775;46.994;15.498;2022-11-20T07:15:44;5.10;99.90
1988;DHT22;12775;46.994;15.498;2022-11-20T07:18:11;5.00;99.90
1988;DHT22;12775;46.994;15.498;2022-11-20T07:20:37;5.00;99.90
1988;DHT22;12775;46.994;15.498;2022-11-20T07:23:04;5.10;99.90
1988;DHT22;12775;46.994;15.498;2022-11-20T07:25:31;5.10;99.90
1988;DHT22;12775;46.994;15.498;2022-11-20T07:27:58;5.10;99.90
1988;DHT22;12775;46.994;15.498;2022-11-20T07:30:24;5.10;99.90
1988;DHT22;12775;46.994;15.498;2022-11-20T07:32:51;5.20;99.90
1988;DHT22;12775;46.994;15.498;2022-11-20T07:35:17;5.20;99.90
1988;DHT22;12775;46.994;15.498;2022-11-20T07:37:44;5.20;99.90
1988;DHT22;12775;46.994;15.498;2022-11-20T07:40:14;5.30;99.90
1988;DHT22;12775;46.994;15.498;2022-11-20T07:42:48;5.30;99.90
1988;DHT22;12775;46.994;15.498;2022-11-20T07:45:15;5.40;99.90
1988;DHT22;12775;46.994;15.498;2022-11-20T07:47:41;5.30;99.90
1988;DHT22;12775;46.994;15.498;2022-11-20T07:50:08;5.40;99.90
1988;DHT22;12775;46.994;15.498;2022-11-20T07:52:35;5.40;99.90
1988;DHT22;12775;46.994;15.498;2022-11-20T07:55:01;5.30;99.90
1988;DHT22;12775;46.994;15.498;2022-11-20T07:57:28;5.20;99.90
1988;DHT22;12775;46.994;15.498;2022-11-20T07:59:54;5.30;99.90
1988;DHT22;12775;46.994;15.498;2022-11-20T08:02:21;5.20;99.90
1988;DHT22;12775;46.994;15.498;2022-11-20T08:04:48;5.20;99.90
1988;DHT22;12775;46.994;15.498;2022-11-20T08:07:14;5.30;99.90
1988;DHT22;12775;46.994;15.498;2022-11-20T08:09:42;5.30;99.90
1988;DHT22;12775;46.994;15.498;2022-11-20T08:12:09;5.40;99.90
1988;DHT22;12775;46.994;15.498;2022-11-20T08:14:41;5.40;99.90
1988;DHT22;12775;46.994;15.498;2022-11-20T08:17:07;5.40;99.90
1988;DHT22;12775;46.994;15.498;2022-11-20T08:19:34;5.50;99.90
1988;DHT22;12775;46.994;15.498;2022-11-20T08:22:00;5.50;99.90
1988;DHT22;12775;46.994;15.498;2022-11-20T08:24:27;5.50;99.90
1988;DHT22;12775;46.994;15.498;2022-11-20T08:26:56;5.50;99.90
1988;DHT22;12775;46.994;15.498;2022-11-20T08:29:21;5.50;99.90
1988;DHT22;12775;46.994;15.498;2022-11-20T08:31:48;5.50;99.90
1988;DHT22;12775;46.994;15.498;2022-11-20T08:34:15;5.50;99.90
1988;DHT22;12775;46.994;15.498;2022-11-20T08:36:42;5.40;99.90
1988;DHT22;12775;46.994;15.498;2022-11-20T08:39:11;5.50;99.90
1988;DHT22;12775;46.994;15.498;2022-11-20T08:41:35;5.50;99.90
1988;DHT22;12775;46.994;15.498;2022-11-20T08:44:03;5.50;99.90
1988;DHT22;12775;46.994;15.498;2022-11-20T08:46:32;5.40;99.90
1988;DHT22;12775;46.994;15.498;2022-11-20T08:48:58;5.50;99.90
1988;DHT22;12775;46.994;15.498;2022-11-20T08:51:24;5.50;99.90
1988;DHT22;12775;46.994;15.498;2022-11-20T08:53:51;5.60;99.90
1988;DHT22;12775;46.994;15.498;2022-11-20T08:56:19;5.70;99.90
1988;DHT22;12775;46.994;15.498;2022-11-20T08:58:45;5.70;99.90
1988;DHT22;12775;46.994;15.498;2022-11-20T09:01:12;5.80;99.90
1988;DHT22;12775;46.994;15.498;2022-11-20T09:03:39;5.80;99.90
1988;DHT22;12775;46.994;15.498;2022-11-20T09:06:06;5.90;99.90
1988;DHT22;12775;46.994;15.498;2022-11-20T09:08:33;5.90;99.90
1988;DHT22;12775;46.994;15.498;2022-11-20T09:10:59;6.00;99.90
1988;DHT22;12775;46.994;15.498;2022-11-20T09:13:26;6.00;99.90
1988;DHT22;12775;46.994;15.498;2022-11-20T09:15:54;6.10;99.90
1988;DHT22;12775;46.994;15.498;2022-11-20T09:18:20;6.10;99.90
1988;DHT22;12775;46.994;15.498;2022-11-20T09:20:47;6.10;99.90
1988;DHT22;12775;46.994;15.498;2022-11-20T09:23:15;6.20;99.90
1988;DHT22;12775;46.994;15.498;2022-11-20T09:25:43;6.20;99.90
1988;DHT22;12775;46.994;15.498;2022-11-20T09:28:09;6.30;99.90
1988;DHT22;12775;46.994;15.498;2022-11-20T09:30:36;6.30;99.90
1988;DHT22;12775;46.994;15.498;2022-11-20T09:33:03;6.30;99.90
1988;DHT22;12775;46.994;15.498;2022-11-20T09:35:29;6.40;99.90
1988;DHT22;12775;46.994;15.498;2022-11-20T09:37:56;6.50;99.90
1988;DHT22;12775;46.994;15.498;2022-11-20T09:40:23;6.60;99.90
1988;DHT22;12775;46.994;15.498;2022-11-20T09:42:54;6.60;99.90
1988;DHT22;12775;46.994;15.498;2022-11-20T09:45:24;6.70;99.90
1988;DHT22;12775;46.994;15.498;2022-11-20T09:50:50;6.70;99.90
1988;DHT22;12775;46.994;15.498;2022-11-20T09:53:33;6.80;99.90
1988;DHT22;12775;46.994;15.498;2022-11-20T09:55:57;6.90;99.90
1988;DHT22;12775;46.994;15.498;2022-11-20T09:58:27;6.90;99.90
1988;DHT22;12775;46.994;15.498;2022-11-20T10:00:52;7.00;99.90
1988;DHT22;12775;46.994;15.498;2022-11-20T10:03:19;7.00;99.90
1988;DHT22;12775;46.994;15.498;2022-11-20T10:05:46;7.10;99.90
1988;DHT22;12775;46.994;15.498;2022-11-20T10:08:17;7.10;99.90
1988;DHT22;12775;46.994;15.498;2022-11-20T10:10:43;7.00;99.90
1988;DHT22;12775;46.994;15.498;2022-11-20T10:13:17;7.00;99.90
1988;DHT22;12775;46.994;15.498;2022-11-20T10:16:00;7.00;99.90
1988;DHT22;12775;46.994;15.498;2022-11-20T10:18:38;7.00;99.90
1988;DHT22;12775;46.994;15.498;2022-11-20T10:21:09;6.90;99.90
1988;DHT22;12775;46.994;15.498;2022-11-20T10:28:59;7.10;99.90
1988;DHT22;12775;46.994;15.498;2022-11-20T10:31:40;7.10;99.90
1988;DHT22;12775;46.994;15.498;2022-11-20T10:34:20;7.20;99.90
1988;DHT22;12775;46.994;15.498;2022-11-20T10:36:52;7.10;99.90
1988;DHT22;12775;46.994;15.498;2022-11-20T10:39:20;7.00;99.90
1988;DHT22;12775;46.994;15.498;2022-11-20T10:41:44;7.10;99.90
1988;DHT22;12775;46.994;15.498;2022-11-20T10:44:26;7.10;99.90
1988;DHT22;12775;46.994;15.498;2022-11-20T10:46:57;7.20;99.90
1988;DHT22;12775;46.994;15.498;2022-11-20T10:49:24;7.10;99.90
1988;DHT22;12775;46.994;15.498;2022-11-20T10:51:58;7.20;99.90
1988;DHT22;12775;46.994;15.498;2022-11-20T10:54:40;7.30;99.90
1988;DHT22;12775;46.994;15.498;2022-11-20T10:57:31;7.30;99.90
1988;DHT22;12775;46.994;15.498;2022-11-20T11:00:01;7.30;99.90
1988;DHT22;12775;46.994;15.498;2022-11-20T11:05:14;7.50;99.90
1988;DHT22;12775;46.994;15.498;2022-11-20T11:07:38;7.60;99.90
1988;DHT22;12775;46.994;15.498;2022-11-20T11:10:22;7.70;99.90
1988;DHT22;12775;46.994;15.498;2022-11-20T11:12:47;7.80;99.90
1988;DHT22;12775;46.994;15.498;2022-11-20T11:15:24;7.80;99.90
1988;DHT22;12775;46.994;15.498;2022-11-20T11:17:46;7.90;99.90
1988;DHT22;12775;46.994;15.498;2022-11-20T11:20:25;7.90;99.90
1988;DHT22;12775;46.994;15.498;2022-11-20T11:22:54;8.00;99.90
1988;DHT22;12775;46.994;15.498;2022-11-20T11:25:29;8.20;99.90
1988;DHT22;12775;46.994;15.498;2022-11-20T11:27:58;8.20;99.90
1988;DHT22;12775;46.994;15.498;2022-11-20T11:30:24;8.30;99.90
1988;DHT22;12775;46.994;15.498;2022-11-20T11:32:50;8.30;99.90
1988;DHT22;12775;46.994;15.498;2022-11-20T11:35:23;8.30;99.90
1988;DHT22;12775;46.994;15.498;2022-11-20T11:37:48;8.30;99.90
1988;DHT22;12775;46.994;15.498;2022-11-20T11:40:17;8.50;99.90
1988;DHT22;12775;46.994;15.498;2022-11-20T11:42:46;8.50;99.90
1988;DHT22;12775;46.994;15.498;2022-11-20T11:45:13;8.70;99.90
1988;DHT22;12775;46.994;15.498;2022-11-20T11:47:47;8.60;99.90
1988;DHT22;12775;46.994;15.498;2022-11-20T11:50:20;8.60;99.90
1988;DHT22;12775;46.994;15.498;2022-11-20T11:55:36;8.80;99.90
1988;DHT22;12775;46.994;15.498;2022-11-20T12:00:34;8.90;99.90
1988;DHT22;12775;46.994;15.498;2022-11-20T12:03:06;8.90;99.90
1988;DHT22;12775;46.994;15.498;2022-11-20T12:05:40;9.00;99.90
1988;DHT22;12775;46.994;15.498;2022-11-20T12:08:23;9.00;99.90
1988;DHT22;12775;46.994;15.498;2022-11-20T12:10:55;9.10;99.90
1988;DHT22;12775;46.994;15.498;2022-11-20T12:14:14;9.30;99.90
1988;DHT22;12775;46.994;15.498;2022-11-20T12:16:21;9.30;99.90
1988;DHT22;12775;46.994;15.498;2022-11-20T12:18:48;9.30;99.90
1988;DHT22;12775;46.994;15.498;2022-11-20T12:21:25;9.30;99.90
1988;DHT22;12775;46.994;15.498;2022-11-20T12:23:55;9.30;99.90
1988;DHT22;12775;46.994;15.498;2022-11-20T12:29:17;9.50;99.90
1988;DHT22;12775;46.994;15.498;2022-11-20T12:32:05;9.50;99.90
1988;DHT22;12775;46.994;15.498;2022-11-20T12:35:10;9.50;99.90
1988;DHT22;12775;46.994;15.498;2022-11-20T12:37:23;9.60;99.90
1988;DHT22;12775;46.994;15.498;2022-11-20T12:39:48;9.70;99.90
1988;DHT22;12775;46.994;15.498;2022-11-20T12:42:20;9.80;99.90
1988;DHT22;12775;46.994;15.498;2022-11-20T12:47:48;9.70;99.90
1988;DHT22;12775;46.994;15.498;2022-11-20T12:50:19;9.80;99.90
1988;DHT22;12775;46.994;15.498;2022-11-20T12:52:51;9.90;99.90
1988;DHT22;12775;46.994;15.498;2022-11-20T12:55:24;9.90;99.90
1988;DHT22;12775;46.994;15.498;2022-11-20T12:57:54;9.50;99.90
1988;DHT22;12775;46.994;15.498;2022-11-20T13:00:20;9.80;99.90
1988;DHT22;12775;46.994;15.498;2022-11-20T13:05:31;9.90;99.90
1988;DHT22;12775;46.994;15.498;2022-11-20T13:07:54;10.00;99.90
1988;DHT22;12775;46.994;15.498;2022-11-20T13:10:23;9.90;99.90
1988;DHT22;12775;46.994;15.498;2022-11-20T13:12:53;9.90;99.90
1988;DHT22;12775;46.994;15.498;2022-11-20T13:16:25;10.00;99.90
1988;DHT22;12775;46.994;15.498;2022-11-20T13:18:02;10.10;99.90
1988;DHT22;12775;46.994;15.498;2022-11-20T13:20:29;10.20;99.90
1988;DHT22;12775;46.994;15.498;2022-11-20T13:22:56;10.30;99.90
1988;DHT22;12775;46.994;15.498;2022-11-20T13:25:28;10.20;99.90
1988;DHT22;12775;46.994;15.498;2022-11-20T13:27:54;10.30;99.90
1988;DHT22;12775;46.994;15.498;2022-11-20T13:30:21;10.30;99.90
1988;DHT22;12775;46.994;15.498;2022-11-20T13:32:53;10.30;99.90
1988;DHT22;12775;46.994;15.498;2022-11-20T13:35:30;10.30;99.90
1988;DHT22;12775;46.994;15.498;2022-11-20T13:38:06;10.40;99.90
1988;DHT22;12775;46.994;15.498;2022-11-20T13:40:32;10.30;99.90
1988;DHT22;12775;46.994;15.498;2022-11-20T13:43:20;10.40;99.90
1988;DHT22;12775;46.994;15.498;2022-11-20T13:45:54;10.40;99.90
1988;DHT22;12775;46.994;15.498;2022-11-20T13:48:24;10.40;99.90
1988;DHT22;12775;46.994;15.498;2022-11-20T13:51:14;10.40;99.50
1988;DHT22;12775;46.994;15.498;2022-11-20T13:53:58;10.30;99.50
1988;DHT22;12775;46.994;15.498;2022-11-20T13:56:34;10.30;99.60
1988;DHT22;12775;46.994;15.498;2022-11-20T13:58:59;10.30;99.60
1988;DHT22;12775;46.994;15.498;2022-11-20T14:01:23;10.30;99.70
1988;DHT22;12775;46.994;15.498;2022-11-20T14:03:50;10.30;99.80
1988;DHT22;12775;46.994;15.498;2022-11-20T14:06:27;10.30;99.90
1988;DHT22;12775;46.994;15.498;2022-11-20T14:08:52;10.20;99.90
1988;DHT22;12775;46.994;15.498;2022-11-20T14:11:20;10.30;99.90
1988;DHT22;12775;46.994;15.498;2022-11-20T14:13:58;10.30;99.90
1988;DHT22;12775;46.994;15.498;2022-11-20T14:16:24;10.20;99.90
1988;DHT22;12775;46.994;15.498;2022-11-20T14:18:50;10.20;99.90
1988;DHT22;12775;46.994;15.498;2022-11-20T14:21:25;10.10;99.90
1988;DHT22;12775;46.994;15.498;2022-11-20T14:23:52;10.10;99.90
1988;DHT22;12775;46.994;15.498;2022-11-20T14:26:17;10.10;99.90
1988;DHT22;12775;46.994;15.498;2022-11-20T14:28:43;10.10;99.90
1988;DHT22;12775;46.994;15.498;2022-11-20T14:31:15;10.10;99.90
1988;DHT22;12775;46.994;15.498;2022-11-20T14:33:36;10.00;99.90
1988;DHT22;12775;46.994;15.498;2022-11-20T14:36:04;9.90;99.90
1988;DHT22;12775;46.994;15.498;2022-11-20T14:38:31;9.90;99.90
1988;DHT22;12775;46.994;15.498;2022-11-20T14:41:06;9.80;99.90
1988;DHT22;12775;46.994;15.498;2022-11-20T14:43:31;9.80;99.90
1988;DHT22;12775;46.994;15.498;2022-11-20T14:45:59;9.80;99.90
1988;DHT22;12775;46.994;15.498;2022-11-20T14:48:29;9.80;99.90
1988;DHT22;12775;46.994;15.498;2022-11-20T14:50:54;9.60;99.90
1988;DHT22;12775;46.994;15.498;2022-11-20T14:53:23;9.50;99.90
1988;DHT22;12775;46.994;15.498;2022-11-20T14:55:54;9.50;99.90
1988;DHT22;12775;46.994;15.498;2022-11-20T14:58:23;9.50;99.90
1988;DHT22;12775;46.994;15.498;2022-11-20T15:01:02;9.40;99.90
1988;DHT22;12775;46.994;15.498;2022-11-20T15:03:33;9.30;99.90
1988;DHT22;12775;46.994;15.498;2022-11-20T15:05:59;9.20;99.90
1988;DHT22;12775;46.994;15.498;2022-11-20T15:08:26;9.20;99.90
1988;DHT22;12775;46.994;15.498;2022-11-20T15:10:52;9.00;99.90
1988;DHT22;12775;46.994;15.498;2022-11-20T15:15:54;8.90;99.90
1988;DHT22;12775;46.994;15.498;2022-11-20T15:18:21;8.70;99.90
1988;DHT22;12775;46.994;15.498;2022-11-20T15:20:47;8.80;99.90
1988;DHT22;12775;46.994;15.498;2022-11-20T15:23:15;8.70;99.90
1988;DHT22;12775;46.994;15.498;2022-11-20T15:25:41;8.60;99.90
1988;DHT22;12775;46.994;15.498;2022-11-20T15:28:20;8.50;99.90
1988;DHT22;12775;46.994;15.498;2022-11-20T15:30:47;8.40;99.90
1988;DHT22;12775;46.994;15.498;2022-11-20T15:33:14;8.40;99.90
1988;DHT22;12775;46.994;15.498;2022-11-20T15:35:40;8.30;99.90
1988;DHT22;12775;46.994;15.498;2022-11-20T15:38:06;8.30;99.90
1988;DHT22;12775;46.994;15.498;2022-11-20T15:40:33;8.30;99.90
1988;DHT22;12775;46.994;15.498;2022-11-20T15:43:00;8.20;99.90
1988;DHT22;12775;46.994;15.498;2022-11-20T15:45:32;8.10;99.90
1988;DHT22;12775;46.994;15.498;2022-11-20T15:47:57;8.10;99.90
1988;DHT22;12775;46.994;15.498;2022-11-20T15:50:24;8.20;99.90
1988;DHT22;12775;46.994;15.498;2022-11-20T15:52:50;8.10;99.90
1988;DHT22;12775;46.994;15.498;2022-11-20T15:55:17;8.10;99.90
1988;DHT22;12775;46.994;15.498;2022-11-20T15:57:43;8.00;99.90
1988;DHT22;12775;46.994;15.498;2022-11-20T16:00:11;8.10;99.90
1988;DHT22;12775;46.994;15.498;2022-11-20T16:02:37;8.10;99.90
1988;DHT22;12775;46.994;15.498;2022-11-20T16:05:04;8.10;99.90
1988;DHT22;12775;46.994;15.498;2022-11-20T16:07:31;8.10;99.90
1988;DHT22;12775;46.994;15.498;2022-11-20T16:09:58;8.10;99.90
1988;DHT22;12775;46.994;15.498;2022-11-20T16:12:24;7.80;99.90
1988;DHT22;12775;46.994;15.498;2022-11-20T16:14:56;7.70;99.90
1988;DHT22;12775;46.994;15.498;2022-11-20T16:17:29;7.30;99.90
1988;DHT22;12775;46.994;15.498;2022-11-20T16:19:55;7.30;99.90